SWA4378 KSNA-KPHX
Flight info
| Callsign | SWA4378 |
|---|---|
| Flight time | 0h 53m |
| Altitude | 33000 |
| Route | PIGGN3 CNERY BLH HYDRR1 |
| Aircraft | B737/M-SDE2E3FGHIRWXY/LB1 |
Departure
| Time | 2026-05-05 12:50 |
|---|---|
| Airport | John Wayne Orange County International Airport (KSNA) |
Arrival
| Time | 2026-05-05 13:43 |
|---|---|
| Airport | Phoenix Sky Harbor International Airport (KPHX) |
| Time | Latitude | Longitude | Altitude | Speed | Heading |
|---|---|---|---|---|---|
| 2026-05-05 12:25 | 33.67571 | -117.86463 | 54 ft | 0 kts | 118° |
| 2026-05-05 12:42 | 33.67573 | -117.86466 | 54 ft | 3 kts | 118° |
| 2026-05-05 12:42 | 33.67584 | -117.86490 | 46 ft | 3 kts | 121° |
| 2026-05-05 12:42 | 33.67596 | -117.86512 | 47 ft | 3 kts | 141° |
| 2026-05-05 12:42 | 33.67611 | -117.86521 | 48 ft | 3 kts | 202° |
| 2026-05-05 12:43 | 33.67614 | -117.86519 | 49 ft | 0 kts | 208° |
| 2026-05-05 12:46 | 33.67613 | -117.86520 | 48 ft | 1 kts | 208° |
| 2026-05-05 12:46 | 33.67607 | -117.86514 | 51 ft | 1 kts | 112° |
| 2026-05-05 12:46 | 33.67616 | -117.86508 | 48 ft | 2 kts | 14° |
| 2026-05-05 12:47 | 33.67647 | -117.86497 | 52 ft | 7 kts | 21° |
| 2026-05-05 12:47 | 33.67703 | -117.86464 | 48 ft | 10 kts | 27° |
| 2026-05-05 12:47 | 33.67774 | -117.86418 | 50 ft | 13 kts | 28° |
| 2026-05-05 12:47 | 33.67860 | -117.86365 | 50 ft | 15 kts | 28° |
| 2026-05-05 12:48 | 33.67951 | -117.86307 | 52 ft | 14 kts | 28° |
| 2026-05-05 12:48 | 33.68023 | -117.86271 | 54 ft | 11 kts | 1° |
| 2026-05-05 12:48 | 33.68078 | -117.86334 | 54 ft | 13 kts | 298° |
| 2026-05-05 12:48 | 33.68122 | -117.86437 | 54 ft | 15 kts | 297° |
| 2026-05-05 12:49 | 33.68108 | -117.86545 | 54 ft | 15 kts | 214° |
| 2026-05-05 12:49 | 33.67933 | -117.86657 | 54 ft | 62 kts | 207° |
| 2026-05-05 12:49 | 33.67303 | -117.87056 | 54 ft | 139 kts | 208° |
| 2026-05-05 12:49 | 33.66333 | -117.87671 | 516 ft | 160 kts | 208° |
| 2026-05-05 12:50 | 33.65384 | -117.88285 | 1591 ft | 149 kts | 208° |
| 2026-05-05 12:50 | 33.64459 | -117.88851 | 2459 ft | 157 kts | 206° |
| 2026-05-05 12:50 | 33.63273 | -117.89148 | 2874 ft | 196 kts | 187° |
| 2026-05-05 12:50 | 33.61795 | -117.89333 | 3194 ft | 231 kts | 187° |
| 2026-05-05 12:51 | 33.60132 | -117.89555 | 3746 ft | 252 kts | 188° |
| 2026-05-05 12:51 | 33.58332 | -117.89770 | 4457 ft | 263 kts | 186° |
| 2026-05-05 12:51 | 33.56504 | -117.89539 | 4830 ft | 270 kts | 159° |
| 2026-05-05 12:51 | 33.54825 | -117.88491 | 5862 ft | 272 kts | 153° |
| 2026-05-05 12:52 | 33.53156 | -117.87430 | 7072 ft | 273 kts | 154° |
| 2026-05-05 12:52 | 33.51475 | -117.86316 | 8112 ft | 281 kts | 146° |
| 2026-05-05 12:52 | 33.50187 | -117.84568 | 9120 ft | 290 kts | 120° |
| 2026-05-05 12:52 | 33.49303 | -117.82367 | 10161 ft | 296 kts | 115° |
| 2026-05-05 12:53 | 33.48434 | -117.80051 | 10727 ft | 318 kts | 115° |
| 2026-05-05 12:53 | 33.47638 | -117.77449 | 10977 ft | 349 kts | 100° |
| 2026-05-05 12:53 | 33.47640 | -117.74498 | 11744 ft | 359 kts | 85° |
| 2026-05-05 12:53 | 33.47902 | -117.71505 | 12692 ft | 364 kts | 83° |
| 2026-05-05 12:54 | 33.49867 | -117.65897 | 14521 ft | 373 kts | 59° |
| 2026-05-05 12:54 | 33.51201 | -117.63203 | 15363 ft | 378 kts | 59° |
| 2026-05-05 12:54 | 33.52545 | -117.60471 | 16205 ft | 383 kts | 59° |
| 2026-05-05 12:55 | 33.53890 | -117.57691 | 17051 ft | 388 kts | 60° |
| 2026-05-05 12:55 | 33.55239 | -117.54863 | 17887 ft | 393 kts | 60° |
| 2026-05-05 12:55 | 33.56578 | -117.52027 | 18658 ft | 398 kts | 62° |
| 2026-05-05 12:55 | 33.57460 | -117.48878 | 19335 ft | 403 kts | 83° |
| 2026-05-05 12:56 | 33.57421 | -117.45537 | 20075 ft | 404 kts | 103° |
| 2026-05-05 12:56 | 33.56594 | -117.42322 | 20828 ft | 405 kts | 112° |
| 2026-05-05 12:56 | 33.55569 | -117.39162 | 21548 ft | 409 kts | 114° |
| 2026-05-05 12:56 | 33.54508 | -117.35977 | 22234 ft | 414 kts | 114° |
| 2026-05-05 12:57 | 33.53452 | -117.32752 | 22852 ft | 420 kts | 114° |
| 2026-05-05 12:57 | 33.52398 | -117.29444 | 23523 ft | 425 kts | 114° |
| 2026-05-05 12:57 | 33.51352 | -117.26119 | 24101 ft | 428 kts | 114° |
| 2026-05-05 12:57 | 33.50435 | -117.22694 | 24591 ft | 438 kts | 103° |
| 2026-05-05 12:58 | 33.50227 | -117.19012 | 25083 ft | 446 kts | 94° |
| 2026-05-05 12:58 | 33.50202 | -117.15273 | 25560 ft | 452 kts | 93° |
| 2026-05-05 12:58 | 33.50187 | -117.11534 | 26020 ft | 457 kts | 94° |
| 2026-05-05 12:58 | 33.50153 | -117.07703 | 26476 ft | 462 kts | 94° |
| 2026-05-05 12:59 | 33.50094 | -117.03832 | 26922 ft | 467 kts | 95° |
| 2026-05-05 12:59 | 33.50016 | -116.99916 | 27360 ft | 472 kts | 95° |
| 2026-05-05 12:59 | 33.49926 | -116.95958 | 27766 ft | 477 kts | 96° |
| 2026-05-05 13:00 | 33.49762 | -116.87937 | 28645 ft | 486 kts | 95° |
| 2026-05-05 13:00 | 33.49686 | -116.83863 | 28932 ft | 492 kts | 97° |
| 2026-05-05 13:01 | 33.49736 | -116.71302 | 29993 ft | 506 kts | 98° |
| 2026-05-05 13:01 | 33.49612 | -116.67076 | 30275 ft | 510 kts | 98° |
| 2026-05-05 13:01 | 33.49504 | -116.62816 | 30632 ft | 513 kts | 97° |
| 2026-05-05 13:01 | 33.49426 | -116.58601 | 31014 ft | 513 kts | 97° |
| 2026-05-05 13:02 | 33.49358 | -116.54319 | 31359 ft | 515 kts | 101° |
| 2026-05-05 13:02 | 33.49009 | -116.50236 | 31512 ft | 519 kts | 101° |
| 2026-05-05 13:02 | 33.49004 | -116.48496 | 31574 ft | 529 kts | 93° |
| 2026-05-05 13:03 | 33.49287 | -116.44075 | 31954 ft | 531 kts | 94° |
| 2026-05-05 13:03 | 33.49366 | -116.39671 | 32322 ft | 529 kts | 97° |
| 2026-05-05 13:03 | 33.49283 | -116.35270 | 32688 ft | 529 kts | 99° |
| 2026-05-05 13:03 | 33.49143 | -116.30865 | 32963 ft | 530 kts | 100° |
| 2026-05-05 13:04 | 33.48903 | -116.21989 | 32928 ft | 534 kts | 99° |
| 2026-05-05 13:04 | 33.48783 | -116.14594 | 32919 ft | 533 kts | 99° |
| 2026-05-05 13:05 | 33.48686 | -116.04289 | 32919 ft | 537 kts | 93° |
| 2026-05-05 13:05 | 33.49399 | -115.99847 | 32926 ft | 549 kts | 76° |
| 2026-05-05 13:05 | 33.50246 | -115.96923 | 32952 ft | 550 kts | 74° |
| 2026-05-05 13:06 | 33.52926 | -115.88384 | 32927 ft | 551 kts | 73° |
| 2026-05-05 13:06 | 33.55556 | -115.79744 | 32925 ft | 552 kts | 75° |
| 2026-05-05 13:07 | 33.58084 | -115.71043 | 32924 ft | 553 kts | 75° |
| 2026-05-05 13:07 | 33.60605 | -115.62321 | 32890 ft | 554 kts | 75° |
| 2026-05-05 13:08 | 33.61687 | -115.57915 | 32897 ft | 546 kts | 87° |
| 2026-05-05 13:08 | 33.61925 | -115.53447 | 32932 ft | 530 kts | 100° |
| 2026-05-05 13:08 | 33.61614 | -115.44622 | 32923 ft | 530 kts | 102° |
| 2026-05-05 13:09 | 33.61260 | -115.35776 | 32904 ft | 533 kts | 101° |
| 2026-05-05 13:09 | 33.60999 | -115.26945 | 32923 ft | 534 kts | 101° |
| 2026-05-05 13:10 | 33.60771 | -115.18024 | 32916 ft | 536 kts | 101° |
| 2026-05-05 13:10 | 33.60539 | -115.09080 | 32909 ft | 537 kts | 101° |
| 2026-05-05 13:11 | 33.60294 | -115.00109 | 32853 ft | 539 kts | 101° |
| 2026-05-05 13:11 | 33.59976 | -114.91149 | 32896 ft | 538 kts | 102° |
| 2026-05-05 13:12 | 33.59818 | -114.82147 | 32921 ft | 541 kts | 101° |
| 2026-05-05 13:12 | 33.59293 | -114.73223 | 32911 ft | 526 kts | 112° |
| 2026-05-05 13:13 | 33.57618 | -114.64761 | 32917 ft | 520 kts | 117° |
| 2026-05-05 13:13 | 33.55798 | -114.56358 | 32915 ft | 522 kts | 116° |
| 2026-05-05 13:14 | 33.54079 | -114.47915 | 32152 ft | 532 kts | 115° |
| 2026-05-05 13:14 | 33.53235 | -114.43609 | 31353 ft | 530 kts | 114° |
| 2026-05-05 13:14 | 33.52403 | -114.39310 | 30457 ft | 529 kts | 114° |
| 2026-05-05 13:15 | 33.51571 | -114.35014 | 29372 ft | 528 kts | 114° |
| 2026-05-05 13:15 | 33.50737 | -114.30737 | 28259 ft | 526 kts | 114° |
| 2026-05-05 13:15 | 33.49878 | -114.26494 | 27130 ft | 523 kts | 112° |
| 2026-05-05 13:15 | 33.49018 | -114.22293 | 26293 ft | 513 kts | 113° |
| 2026-05-05 13:16 | 33.48204 | -114.18164 | 25468 ft | 507 kts | 110° |
| 2026-05-05 13:16 | 33.47444 | -114.14109 | 25233 ft | 487 kts | 109° |
| 2026-05-05 13:16 | 33.46736 | -114.10235 | 25017 ft | 467 kts | 111° |
| 2026-05-05 13:16 | 33.45997 | -114.06522 | 24774 ft | 450 kts | 112° |
| 2026-05-05 13:17 | 33.45251 | -114.02941 | 24507 ft | 437 kts | 112° |
| 2026-05-05 13:17 | 33.44537 | -113.99490 | 24268 ft | 429 kts | 111° |
| 2026-05-05 13:17 | 33.43834 | -113.96041 | 24037 ft | 426 kts | 111° |
| 2026-05-05 13:17 | 33.43127 | -113.92545 | 23789 ft | 428 kts | 111° |
| 2026-05-05 13:18 | 33.42437 | -113.89127 | 23529 ft | 429 kts | 110° |
| 2026-05-05 13:18 | 33.41737 | -113.85653 | 23182 ft | 429 kts | 110° |
| 2026-05-05 13:18 | 33.41043 | -113.82198 | 22883 ft | 426 kts | 110° |
| 2026-05-05 13:18 | 33.40353 | -113.78759 | 22603 ft | 423 kts | 110° |
| 2026-05-05 13:19 | 33.39667 | -113.75351 | 22317 ft | 419 kts | 110° |
| 2026-05-05 13:19 | 33.38986 | -113.71974 | 22033 ft | 415 kts | 110° |
| 2026-05-05 13:19 | 33.38309 | -113.68626 | 21780 ft | 413 kts | 110° |
| 2026-05-05 13:19 | 33.37635 | -113.65300 | 21515 ft | 411 kts | 110° |
| 2026-05-05 13:20 | 33.36963 | -113.61991 | 21247 ft | 409 kts | 110° |
| 2026-05-05 13:20 | 33.36290 | -113.58684 | 20987 ft | 408 kts | 110° |
| 2026-05-05 13:20 | 33.35630 | -113.55436 | 20714 ft | 407 kts | 110° |
| 2026-05-05 13:20 | 33.34962 | -113.52153 | 20448 ft | 406 kts | 110° |
| 2026-05-05 13:21 | 33.34294 | -113.48885 | 20179 ft | 404 kts | 110° |
| 2026-05-05 13:21 | 33.33628 | -113.45615 | 19916 ft | 404 kts | 109° |
| 2026-05-05 13:21 | 33.33027 | -113.42342 | 19607 ft | 404 kts | 108° |
| 2026-05-05 13:21 | 33.32471 | -113.39059 | 19347 ft | 402 kts | 107° |
| 2026-05-05 13:22 | 33.31925 | -113.35783 | 19078 ft | 401 kts | 107° |
| 2026-05-05 13:22 | 33.31376 | -113.32524 | 18823 ft | 399 kts | 107° |
| 2026-05-05 13:22 | 33.30822 | -113.29286 | 18567 ft | 396 kts | 107° |
| 2026-05-05 13:22 | 33.30265 | -113.26068 | 18307 ft | 394 kts | 107° |
| 2026-05-05 13:23 | 33.29709 | -113.22874 | 18022 ft | 392 kts | 107° |
| 2026-05-05 13:23 | 33.29214 | -113.19675 | 17742 ft | 390 kts | 105° |
| 2026-05-05 13:23 | 33.28778 | -113.16532 | 17478 ft | 387 kts | 104° |
| 2026-05-05 13:23 | 33.28343 | -113.13370 | 17218 ft | 384 kts | 104° |
| 2026-05-05 13:24 | 33.27900 | -113.10237 | 16998 ft | 380 kts | 105° |
| 2026-05-05 13:24 | 33.27468 | -113.07163 | 16758 ft | 370 kts | 103° |
| 2026-05-05 13:24 | 33.27330 | -113.04120 | 16555 ft | 364 kts | 94° |
| 2026-05-05 13:24 | 33.27422 | -113.01115 | 16333 ft | 361 kts | 91° |
| 2026-05-05 13:25 | 33.27561 | -112.98125 | 16100 ft | 361 kts | 91° |
| 2026-05-05 13:25 | 33.27688 | -112.95128 | 15874 ft | 362 kts | 92° |
| 2026-05-05 13:25 | 33.27792 | -112.92113 | 15635 ft | 363 kts | 92° |
| 2026-05-05 13:25 | 33.27878 | -112.89105 | 15399 ft | 362 kts | 92° |
| 2026-05-05 13:26 | 33.27954 | -112.86107 | 15163 ft | 361 kts | 92° |
| 2026-05-05 13:26 | 33.28025 | -112.83131 | 14925 ft | 353 kts | 92° |
| 2026-05-05 13:26 | 33.28158 | -112.80244 | 14687 ft | 345 kts | 89° |
| 2026-05-05 13:26 | 33.28407 | -112.77432 | 14455 ft | 337 kts | 87° |
| 2026-05-05 13:27 | 33.28688 | -112.74672 | 14248 ft | 332 kts | 87° |
| 2026-05-05 13:27 | 33.28967 | -112.71948 | 14046 ft | 330 kts | 87° |
| 2026-05-05 13:27 | 33.29234 | -112.69268 | 13838 ft | 329 kts | 87° |
| 2026-05-05 13:27 | 33.29499 | -112.66560 | 13617 ft | 328 kts | 87° |
| 2026-05-05 13:28 | 33.29758 | -112.63859 | 13377 ft | 327 kts | 87° |
| 2026-05-05 13:28 | 33.30013 | -112.61158 | 13155 ft | 326 kts | 88° |
| 2026-05-05 13:28 | 33.30265 | -112.58470 | 12931 ft | 325 kts | 88° |
| 2026-05-05 13:28 | 33.30515 | -112.55788 | 12711 ft | 324 kts | 88° |
| 2026-05-05 13:29 | 33.30763 | -112.53114 | 12494 ft | 323 kts | 88° |
| 2026-05-05 13:29 | 33.31009 | -112.50455 | 12285 ft | 321 kts | 87° |
| 2026-05-05 13:29 | 33.31254 | -112.47803 | 12083 ft | 321 kts | 87° |
| 2026-05-05 13:29 | 33.31499 | -112.45159 | 11858 ft | 320 kts | 88° |
| 2026-05-05 13:30 | 33.31742 | -112.42518 | 11649 ft | 319 kts | 88° |
| 2026-05-05 13:30 | 33.31984 | -112.39881 | 11448 ft | 318 kts | 88° |
| 2026-05-05 13:30 | 33.32223 | -112.37252 | 11240 ft | 318 kts | 88° |
| 2026-05-05 13:30 | 33.32462 | -112.34633 | 11034 ft | 317 kts | 88° |
| 2026-05-05 13:31 | 33.32699 | -112.32015 | 10824 ft | 316 kts | 88° |
| 2026-05-05 13:31 | 33.32937 | -112.29402 | 10622 ft | 315 kts | 88° |
| 2026-05-05 13:31 | 33.33174 | -112.26807 | 10413 ft | 314 kts | 88° |
| 2026-05-05 13:31 | 33.33407 | -112.24249 | 10208 ft | 313 kts | 88° |
| 2026-05-05 13:32 | 33.33640 | -112.21688 | 9989 ft | 305 kts | 88° |
| 2026-05-05 13:32 | 33.33867 | -112.19200 | 9780 ft | 297 kts | 89° |
| 2026-05-05 13:32 | 33.34088 | -112.16769 | 9563 ft | 290 kts | 89° |
| 2026-05-05 13:32 | 33.34300 | -112.14408 | 9370 ft | 282 kts | 88° |
| 2026-05-05 13:33 | 33.34507 | -112.12106 | 9169 ft | 275 kts | 89° |
| 2026-05-05 13:33 | 33.34709 | -112.09866 | 9003 ft | 267 kts | 89° |
| 2026-05-05 13:33 | 33.34809 | -112.07681 | 8750 ft | 260 kts | 95° |
| 2026-05-05 13:33 | 33.34772 | -112.05556 | 8489 ft | 252 kts | 97° |
| 2026-05-05 13:34 | 33.34720 | -112.03501 | 8247 ft | 243 kts | 96° |
| 2026-05-05 13:34 | 33.34679 | -112.01525 | 7993 ft | 240 kts | 96° |
| 2026-05-05 13:34 | 33.34645 | -111.99537 | 7736 ft | 239 kts | 95° |
| 2026-05-05 13:34 | 33.34615 | -111.97554 | 7485 ft | 238 kts | 95° |
| 2026-05-05 13:35 | 33.34586 | -111.95583 | 7248 ft | 235 kts | 95° |
| 2026-05-05 13:35 | 33.34559 | -111.93647 | 6974 ft | 229 kts | 95° |
| 2026-05-05 13:35 | 33.34518 | -111.91770 | 6665 ft | 222 kts | 95° |
| 2026-05-05 13:35 | 33.34477 | -111.89953 | 6375 ft | 215 kts | 95° |
| 2026-05-05 13:36 | 33.34441 | -111.88194 | 6092 ft | 210 kts | 94° |
| 2026-05-05 13:36 | 33.34414 | -111.86459 | 5865 ft | 208 kts | 94° |
| 2026-05-05 13:36 | 33.34395 | -111.84716 | 5638 ft | 211 kts | 94° |
| 2026-05-05 13:36 | 33.34384 | -111.82962 | 5447 ft | 211 kts | 93° |
| 2026-05-05 13:37 | 33.34366 | -111.81229 | 5276 ft | 211 kts | 93° |
| 2026-05-05 13:37 | 33.34514 | -111.79489 | 5033 ft | 216 kts | 68° |
| 2026-05-05 13:37 | 33.35519 | -111.78243 | 4782 ft | 208 kts | 22° |
| 2026-05-05 13:37 | 33.36904 | -111.77998 | 4538 ft | 200 kts | 350° |
| 2026-05-05 13:38 | 33.38211 | -111.78496 | 4309 ft | 197 kts | 333° |
| 2026-05-05 13:38 | 33.39448 | -111.79219 | 4092 ft | 198 kts | 331° |
| 2026-05-05 13:38 | 33.40675 | -111.79954 | 4047 ft | 199 kts | 331° |
| 2026-05-05 13:38 | 33.41901 | -111.80717 | 4007 ft | 197 kts | 323° |
| 2026-05-05 13:39 | 33.42649 | -111.81964 | 4006 ft | 184 kts | 278° |
| 2026-05-05 13:39 | 33.42810 | -111.83513 | 3825 ft | 189 kts | 274° |
| 2026-05-05 13:39 | 33.42882 | -111.85066 | 3591 ft | 186 kts | 270° |
| 2026-05-05 13:39 | 33.42891 | -111.86603 | 3344 ft | 184 kts | 269° |
| 2026-05-05 13:40 | 33.42889 | -111.88125 | 3105 ft | 183 kts | 269° |
| 2026-05-05 13:40 | 33.42888 | -111.89615 | 2858 ft | 173 kts | 269° |
| 2026-05-05 13:40 | 33.42887 | -111.90948 | 2658 ft | 153 kts | 269° |
| 2026-05-05 13:40 | 33.42886 | -111.92152 | 2445 ft | 137 kts | 269° |
| 2026-05-05 13:41 | 33.42888 | -111.93247 | 2270 ft | 129 kts | 268° |
| 2026-05-05 13:41 | 33.42883 | -111.94339 | 2147 ft | 133 kts | 267° |
| 2026-05-05 13:41 | 33.42882 | -111.95459 | 1934 ft | 134 kts | 268° |
| 2026-05-05 13:41 | 33.42883 | -111.96570 | 1758 ft | 135 kts | 266° |
| 2026-05-05 13:42 | 33.42881 | -111.97706 | 1577 ft | 139 kts | 268° |
| 2026-05-05 13:42 | 33.42883 | -111.98886 | 1383 ft | 143 kts | 269° |
| 2026-05-05 13:42 | 33.42886 | -112.00078 | 1194 ft | 143 kts | 268° |
| 2026-05-05 13:42 | 33.42884 | -112.01199 | 1128 ft | 122 kts | 269° |
| 2026-05-05 13:43 | 33.42886 | -112.02041 | 1124 ft | 80 kts | 270° |
| 2026-05-05 13:43 | 33.42888 | -112.02506 | 1120 ft | 32 kts | 268° |
| 2026-05-05 13:43 | 33.42906 | -112.02674 | 1117 ft | 12 kts | 315° |
| 2026-05-05 13:43 | 33.42983 | -112.02698 | 1121 ft | 12 kts | 359° |
| 2026-05-05 13:44 | 33.43068 | -112.02698 | 1119 ft | 12 kts | 360° |
| 2026-05-05 13:44 | 33.43152 | -112.02699 | 1119 ft | 12 kts | 360° |
| 2026-05-05 13:44 | 33.43245 | -112.02696 | 1115 ft | 14 kts | 9° |
| 2026-05-05 13:44 | 33.43289 | -112.02600 | 1123 ft | 15 kts | 89° |
| 2026-05-05 13:45 | 33.43288 | -112.02473 | 1119 ft | 16 kts | 90° |
| 2026-05-05 13:45 | 33.43288 | -112.02337 | 1120 ft | 17 kts | 90° |
| 2026-05-05 13:45 | 33.43288 | -112.02192 | 1121 ft | 18 kts | 90° |
| 2026-05-05 13:45 | 33.43288 | -112.02040 | 1124 ft | 19 kts | 90° |
| 2026-05-05 13:46 | 33.43288 | -112.01880 | 1116 ft | 20 kts | 90° |
| 2026-05-05 13:46 | 33.43288 | -112.01712 | 1116 ft | 21 kts | 90° |
| 2026-05-05 13:46 | 33.43288 | -112.01537 | 1116 ft | 21 kts | 90° |
| 2026-05-05 13:46 | 33.43288 | -112.01356 | 1123 ft | 22 kts | 90° |
| 2026-05-05 13:47 | 33.43287 | -112.01175 | 1124 ft | 21 kts | 90° |
| 2026-05-05 13:47 | 33.43287 | -112.01000 | 1119 ft | 21 kts | 90° |
| 2026-05-05 13:47 | 33.43287 | -112.00831 | 1124 ft | 20 kts | 90° |
| 2026-05-05 13:47 | 33.43287 | -112.00668 | 1124 ft | 19 kts | 89° |
| 2026-05-05 13:48 | 33.43287 | -112.00511 | 1117 ft | 18 kts | 92° |
| 2026-05-05 13:48 | 33.43283 | -112.00360 | 1124 ft | 18 kts | 89° |
| 2026-05-05 13:48 | 33.43283 | -112.00216 | 1121 ft | 17 kts | 90° |
| 2026-05-05 13:48 | 33.43283 | -112.00080 | 1119 ft | 16 kts | 90° |
| 2026-05-05 13:49 | 33.43283 | -111.99948 | 1122 ft | 15 kts | 90° |
| 2026-05-05 13:49 | 33.43282 | -111.99822 | 1123 ft | 15 kts | 90° |
| 2026-05-05 13:49 | 33.43283 | -111.99703 | 1120 ft | 14 kts | 89° |
| 2026-05-05 13:49 | 33.43283 | -111.99619 | 1120 ft | 7 kts | 90° |
| 2026-05-05 13:50 | 33.43289 | -111.99560 | 1116 ft | 7 kts | 65° |
| 2026-05-05 13:50 | 33.43326 | -111.99530 | 1122 ft | 4 kts | 17° |
| 2026-05-05 13:50 | 33.43344 | -111.99507 | 1121 ft | 4 kts | 60° |
| 2026-05-05 13:50 | 33.43354 | -111.99482 | 1118 ft | 1 kts | 67° |
| 2026-05-05 13:51 | 33.43355 | -111.99478 | 1118 ft | 0 kts | 67° |
| 2026-05-05 13:51 | 33.43356 | -111.99475 | 1118 ft | 0 kts | 67° |